createdAt,value
2019-06-08T00:00:20.715Z,78.63
2019-06-08T00:01:20.594Z,78.42
2019-06-08T00:02:20.591Z,78.73
2019-06-08T00:03:20.441Z,78.79
2019-06-08T00:04:20.590Z,78.59
2019-06-08T00:05:20.934Z,78.49
2019-06-08T00:06:19.315Z,78.49
2019-06-08T00:07:20.794Z,78.49
2019-06-08T00:08:19.309Z,77.78
2019-06-08T00:09:20.867Z,78.28
2019-06-08T00:10:22.758Z,78.22
2019-06-08T00:11:21.159Z,78.73
2019-06-08T00:12:19.251Z,79.44
2019-06-08T00:13:19.759Z,79.44
2019-06-08T00:14:21.387Z,78.93
2019-06-08T00:15:20.293Z,79.85
2019-06-08T00:16:19.760Z,79.44
2019-06-08T00:17:37.059Z,79.44
2019-06-08T00:18:21.432Z,79.64
2019-06-08T00:19:19.420Z,79.24
2019-06-08T00:20:21.764Z,79.58
2019-06-08T00:21:19.672Z,79.38
2019-06-08T00:22:19.774Z,79.38
2019-06-08T00:23:20.087Z,79.07
2019-06-08T00:24:19.872Z,79.27
2019-06-08T00:25:20.789Z,79.07
2019-06-08T00:26:20.069Z,79.07
2019-06-08T00:27:20.207Z,79.27
2019-06-08T00:28:20.318Z,78.56
2019-06-08T00:29:20.278Z,78.46
2019-06-08T00:30:19.040Z,78.66
2019-06-08T00:31:20.090Z,78.06
2019-06-08T00:32:20.349Z,78.26
2019-06-08T00:33:19.060Z,78.66
2019-06-08T00:34:19.007Z,77.95
2019-06-08T00:35:19.086Z,77.75
2019-06-08T00:36:18.990Z,77.95
2019-06-08T00:37:19.033Z,78.06
2019-06-08T00:38:18.971Z,78.46
2019-06-08T00:39:19.237Z,78.50
2019-06-08T00:40:18.979Z,78.70
2019-06-08T00:41:20.678Z,79.00
2019-06-08T00:42:19.326Z,79.11
2019-06-08T00:43:19.183Z,79.21
2019-06-08T00:44:19.242Z,79.11
2019-06-08T00:45:20.019Z,79.21
2019-06-08T00:46:19.345Z,79.41
2019-06-08T00:47:18.933Z,79.61
2019-06-08T00:48:19.543Z,79.72
2019-06-08T00:49:18.860Z,79.61
2019-06-08T00:50:18.945Z,79.72
2019-06-08T00:51:19.121Z,79.61
2019-06-08T00:52:19.328Z,79.61
2019-06-08T00:53:19.760Z,79.92
2019-06-08T00:54:19.308Z,79.61
2019-06-08T00:55:19.470Z,80.02
2019-06-08T00:56:19.442Z,80.16
2019-06-08T00:57:19.681Z,80.16
2019-06-08T00:58:20.364Z,80.26
2019-06-08T00:59:19.939Z,80.46
2019-06-08T01:00:20.283Z,80.57
2019-06-08T01:01:20.782Z,80.36
2019-06-08T01:02:18.710Z,80.36
2019-06-08T01:03:19.613Z,80.16
2019-06-08T01:04:18.700Z,80.06
2019-06-08T01:05:19.871Z,79.72
2019-06-08T01:06:18.867Z,79.41
2019-06-08T01:07:19.875Z,79.45
2019-06-08T01:08:20.219Z,79.45
2019-06-08T01:09:18.629Z,79.55
2019-06-08T01:10:19.227Z,79.55
2019-06-08T01:11:18.692Z,79.45
2019-06-08T01:12:18.740Z,79.45
2019-06-08T01:13:18.839Z,79.35
2019-06-08T01:14:18.932Z,79.25
2019-06-08T01:15:23.543Z,78.23
2019-06-08T01:16:20.835Z,78.74
2019-06-08T01:17:19.309Z,78.44
2019-06-08T01:18:20.725Z,78.03
2019-06-08T01:19:19.178Z,78.33
2019-06-08T01:20:19.471Z,78.44
2019-06-08T01:21:19.425Z,78.53
2019-06-08T01:22:19.498Z,78.53
2019-06-08T01:23:19.515Z,78.33
2019-06-08T01:24:19.675Z,78.23
2019-06-08T01:25:20.117Z,76.10
2019-06-08T01:26:19.697Z,76.06
2019-06-08T01:27:19.869Z,76.40
2019-06-08T01:28:19.850Z,76.81
2019-06-08T01:29:18.433Z,77.22
2019-06-08T01:30:18.431Z,77.32
2019-06-08T01:31:18.403Z,77.52
2019-06-08T01:32:18.425Z,77.22
2019-06-08T01:33:18.416Z,77.32
2019-06-08T01:34:18.420Z,77.62
2019-06-08T01:35:18.358Z,77.62
2019-06-08T01:36:18.348Z,77.83
2019-06-08T01:37:18.628Z,77.83
2019-06-08T01:38:18.358Z,77.32
2019-06-08T01:39:18.331Z,77.42
2019-06-08T01:40:18.360Z,77.42
2019-06-08T01:41:18.298Z,77.32
2019-06-08T01:42:18.287Z,77.22
2019-06-08T01:43:18.286Z,76.91
2019-06-08T01:44:19.639Z,77.25
2019-06-08T01:45:18.262Z,77.12
2019-06-08T01:46:18.278Z,77.01
2019-06-08T01:47:18.239Z,77.12
2019-06-08T01:48:20.335Z,76.91
2019-06-08T01:49:18.217Z,77.25
2019-06-08T01:50:18.209Z,77.25
2019-06-08T01:51:18.521Z,77.15
2019-06-08T01:52:18.225Z,76.75
2019-06-08T01:53:18.174Z,76.95
2019-06-08T01:54:18.427Z,76.85
2019-06-08T01:55:18.164Z,76.91
2019-06-08T01:56:18.138Z,76.91
2019-06-08T01:57:18.129Z,75.29
2019-06-08T01:58:19.046Z,75.59
2019-06-08T01:59:18.108Z,76.20
2019-06-08T02:01:40.096Z,76.61
2019-06-08T02:02:39.483Z,76.71
2019-06-08T02:03:39.474Z,76.51
2019-06-08T02:04:39.456Z,76.51
2019-06-08T02:05:39.497Z,76.61
2019-06-08T02:06:39.437Z,76.61
2019-06-08T02:07:39.766Z,76.20
2019-06-08T02:08:39.434Z,76.40
2019-06-08T02:09:39.405Z,76.10
2019-06-08T02:10:39.395Z,76.51
2019-06-08T02:11:39.417Z,76.85
2019-06-08T02:12:39.378Z,77.15
2019-06-08T02:13:39.411Z,77.45
2019-06-08T02:14:39.636Z,77.56
2019-06-08T02:15:39.345Z,77.56
2019-06-08T02:16:39.406Z,78.10
2019-06-08T02:17:39.335Z,78.20
2019-06-08T02:18:50.553Z,78.41
2019-06-08T02:19:40.345Z,78.41
2019-06-08T02:20:39.401Z,78.51
2019-06-08T02:21:39.567Z,78.41
2019-06-08T02:22:39.439Z,77.90
2019-06-08T02:23:39.681Z,78.00
2019-06-08T02:24:39.619Z,78.00
2019-06-08T02:25:39.622Z,78.10
2019-06-08T02:26:39.767Z,77.80
2019-06-08T02:27:39.765Z,77.59
2019-06-08T02:28:40.195Z,77.59
2019-06-08T02:29:39.942Z,77.59
2019-06-08T02:30:41.672Z,78.00
2019-06-08T02:31:39.737Z,78.24
2019-06-08T02:32:40.575Z,78.24
2019-06-08T02:33:40.472Z,78.75
2019-06-08T02:34:40.627Z,78.55
2019-06-08T02:35:39.437Z,78.44
2019-06-08T02:36:40.713Z,78.34
2019-06-08T02:37:39.966Z,78.55
2019-06-08T02:38:39.705Z,78.75
2019-06-08T02:39:39.991Z,79.16
2019-06-08T02:40:40.224Z,78.95
2019-06-08T02:41:40.001Z,78.64
2019-06-08T02:42:40.220Z,78.75
2019-06-08T02:43:40.301Z,79.16
2019-06-08T02:44:40.641Z,79.25
2019-06-08T02:45:40.478Z,79.19
2019-06-08T02:46:40.401Z,79.16
2019-06-08T02:47:40.921Z,79.16
2019-06-08T02:49:00.120Z,79.39
2019-06-08T02:49:40.049Z,79.19
2019-06-08T02:50:39.056Z,79.19
2019-06-08T02:51:38.971Z,79.29
2019-06-08T02:52:40.812Z,79.50
2019-06-08T02:53:38.961Z,79.29
2019-06-08T02:54:39.813Z,79.50
2019-06-08T02:55:39.508Z,79.70
2019-06-08T02:56:41.034Z,79.19
2019-06-08T02:57:39.876Z,79.39
2019-06-08T02:58:40.819Z,79.50
2019-06-08T02:59:40.935Z,79.19
2019-06-08T03:00:39.531Z,79.19
2019-06-08T03:01:40.633Z,78.89
2019-06-08T03:02:40.458Z,78.99
2019-06-08T03:03:40.267Z,78.78
2019-06-08T03:04:40.763Z,78.68
2019-06-08T03:05:40.461Z,78.78
2019-06-08T03:06:41.151Z,78.99
2019-06-08T03:07:41.208Z,78.78
2019-06-08T03:08:41.193Z,78.99
2019-06-08T03:09:38.793Z,79.33
2019-06-08T03:10:39.328Z,79.29
2019-06-08T03:11:39.271Z,79.19
2019-06-08T03:12:40.366Z,78.99
2019-06-08T03:13:40.356Z,78.89
2019-06-08T03:14:39.687Z,78.78
2019-06-08T03:15:40.824Z,78.48
2019-06-08T03:16:41.108Z,78.38
2019-06-08T03:17:40.134Z,78.17
2019-06-08T03:18:40.088Z,78.48
2019-06-08T03:19:40.098Z,78.28
2019-06-08T03:20:40.103Z,78.38
2019-06-08T03:21:40.381Z,78.08
2019-06-08T03:22:41.219Z,78.38
2019-06-08T03:23:39.364Z,78.08
2019-06-08T03:24:38.845Z,78.38
2019-06-08T03:25:47.276Z,78.38
2019-06-08T03:26:41.406Z,78.28
2019-06-08T03:27:39.283Z,78.17
2019-06-08T03:28:39.946Z,78.28
2019-06-08T03:29:39.051Z,78.17
2019-06-08T03:30:45.466Z,78.28
2019-06-08T03:31:47.791Z,78.17
2019-06-08T03:32:47.302Z,78.38
2019-06-08T03:33:49.170Z,77.87
2019-06-08T03:34:45.993Z,77.73
2019-06-08T03:35:50.955Z,77.43
2019-06-08T03:36:49.850Z,77.43
2019-06-08T03:37:40.026Z,77.22
2019-06-08T03:38:40.236Z,77.33
2019-06-08T03:39:38.929Z,77.43
2019-06-08T03:40:40.401Z,77.09
2019-06-08T03:41:40.282Z,76.17
2019-06-08T03:42:38.434Z,75.56
2019-06-08T03:43:40.713Z,75.63
2019-06-08T03:44:38.516Z,75.63
2019-06-08T03:45:38.434Z,74.82
2019-06-08T03:46:38.858Z,74.10
2019-06-08T03:47:39.166Z,74.10
2019-06-08T03:48:40.064Z,73.90
2019-06-08T03:49:48.780Z,73.50
2019-06-08T03:50:40.231Z,74.04
2019-06-08T03:51:41.816Z,74.24
2019-06-08T03:52:39.860Z,74.65
2019-06-08T03:53:40.040Z,74.34
2019-06-08T03:54:40.489Z,74.44
2019-06-08T03:55:40.219Z,74.51
2019-06-08T03:56:40.115Z,74.41
2019-06-08T03:57:40.315Z,74.41
2019-06-08T03:58:38.979Z,74.21
2019-06-08T03:59:38.731Z,73.60
2019-06-08T04:00:38.325Z,73.70
2019-06-08T04:01:39.784Z,73.70
2019-06-08T04:02:39.795Z,74.44
2019-06-08T04:03:39.998Z,74.65
2019-06-08T04:04:39.815Z,74.75
2019-06-08T04:05:40.239Z,75.26
2019-06-08T04:06:39.758Z,74.85
2019-06-08T04:07:39.806Z,75.05
2019-06-08T04:08:40.229Z,75.49
2019-06-08T04:09:39.811Z,75.90
2019-06-08T04:10:39.723Z,76.31
2019-06-08T04:11:39.958Z,76.65
2019-06-08T04:12:39.742Z,76.65
2019-06-08T04:13:39.766Z,76.61
2019-06-08T04:14:39.733Z,75.60
2019-06-08T04:15:40.153Z,75.90
2019-06-08T04:16:40.201Z,76.55
2019-06-08T04:17:39.689Z,76.86
2019-06-08T04:18:38.673Z,77.16
2019-06-08T04:19:39.635Z,77.56
2019-06-08T04:20:38.115Z,77.77
2019-06-08T04:21:38.035Z,77.67
2019-06-08T04:22:38.052Z,77.67
2019-06-08T04:23:40.294Z,77.56
2019-06-08T04:24:38.106Z,77.33
2019-06-08T04:25:38.373Z,76.61
2019-06-08T04:26:38.543Z,76.75
2019-06-08T04:27:38.503Z,76.75
2019-06-08T04:28:38.306Z,76.95
2019-06-08T04:29:39.469Z,77.06
2019-06-08T04:30:38.687Z,76.95
2019-06-08T04:31:39.602Z,76.92
2019-06-08T04:32:38.578Z,76.82
2019-06-08T04:33:37.985Z,76.31
2019-06-08T04:34:38.715Z,76.41
2019-06-08T04:35:38.235Z,76.75
2019-06-08T04:36:38.947Z,77.06
2019-06-08T04:37:38.403Z,77.36
2019-06-08T04:38:39.033Z,77.36
2019-06-08T04:39:38.387Z,77.56
2019-06-08T04:40:39.428Z,77.47
2019-06-08T04:41:38.513Z,77.77
2019-06-08T04:42:39.329Z,77.26
2019-06-08T04:43:40.002Z,77.47
2019-06-08T04:44:38.503Z,77.26
2019-06-08T04:45:38.726Z,77.47
2019-06-08T04:46:38.236Z,77.50
2019-06-08T04:47:38.463Z,77.81
2019-06-08T04:48:38.641Z,77.91
2019-06-08T04:49:38.496Z,78.21
2019-06-08T04:50:38.701Z,78.41
2019-06-08T04:51:38.854Z,78.11
2019-06-08T04:52:38.884Z,78.21
2019-06-08T04:53:38.547Z,77.97
2019-06-08T04:54:38.950Z,77.06
2019-06-08T04:55:38.811Z,76.75
2019-06-08T04:56:38.580Z,76.41
2019-06-08T04:57:39.400Z,76.31
2019-06-08T04:58:39.812Z,76.10
2019-06-08T04:59:38.984Z,75.80
2019-06-08T05:00:39.087Z,75.40
2019-06-08T05:01:38.856Z,75.49
2019-06-08T05:02:39.357Z,75.36
2019-06-08T05:03:39.053Z,75.05
2019-06-08T05:04:38.902Z,74.65
2019-06-08T05:05:39.168Z,74.65
2019-06-08T05:06:38.987Z,74.95
2019-06-08T05:07:39.149Z,74.41
2019-06-08T05:08:38.920Z,74.01
2019-06-08T05:09:39.001Z,73.90
2019-06-08T05:10:39.084Z,72.48
2019-06-08T05:11:38.942Z,71.88
2019-06-08T05:12:39.060Z,72.58
2019-06-08T05:13:39.043Z,72.96
2019-06-08T05:14:38.986Z,72.45
2019-06-08T05:15:38.988Z,71.23
2019-06-08T05:16:39.007Z,71.70
2019-06-08T05:17:39.137Z,71.00
2019-06-08T05:18:39.117Z,70.35
2019-06-08T05:19:39.132Z,69.54
2019-06-08T05:20:39.309Z,69.34
2019-06-08T05:21:37.406Z,68.93
2019-06-08T05:22:37.394Z,69.41
2019-06-08T05:23:39.254Z,69.71
2019-06-08T05:24:37.366Z,70.15
2019-06-08T05:25:38.993Z,69.64
2019-06-08T05:26:37.346Z,69.24
2019-06-08T05:27:37.344Z,65.48
2019-06-08T05:28:37.325Z,66.88
2019-06-08T05:29:37.327Z,65.86
2019-06-08T05:30:37.316Z,66.44
2019-06-08T05:31:37.708Z,65.12
2019-06-08T05:32:37.291Z,65.02
2019-06-08T05:33:37.274Z,65.90
2019-06-08T05:34:37.266Z,64.69
2019-06-08T05:35:37.258Z,62.26
2019-06-08T05:36:37.243Z,61.24
2019-06-08T05:37:37.286Z,61.14
2019-06-08T05:38:37.517Z,59.63
2019-06-08T05:39:37.208Z,58.31
2019-06-08T05:40:37.290Z,58.41
2019-06-08T05:41:37.276Z,58.71
2019-06-08T05:42:37.177Z,58.31
2019-06-08T05:43:37.215Z,57.70
2019-06-08T05:44:37.158Z,57.47
2019-06-08T05:45:37.435Z,57.80
2019-06-08T05:46:37.143Z,57.57
2019-06-08T05:47:37.133Z,56.86
2019-06-08T05:48:37.595Z,56.86
2019-06-08T05:49:37.155Z,55.44
2019-06-08T05:50:37.098Z,55.65
2019-06-08T05:51:37.094Z,55.88
2019-06-08T05:52:37.077Z,56.26
2019-06-08T05:53:37.083Z,56.05
2019-06-08T05:54:37.055Z,54.71
2019-06-08T05:55:37.091Z,54.71
2019-06-08T05:56:37.035Z,53.80
2019-06-08T05:57:37.022Z,53.40
2019-06-08T05:58:37.005Z,52.69
2019-06-08T05:59:37.007Z,52.89
2019-06-08T06:00:37.067Z,52.19
2019-06-08T06:01:37.015Z,51.40
2019-06-08T06:02:36.975Z,51.88
2019-06-08T06:03:36.965Z,51.17
2019-06-08T06:04:37.230Z,52.08
2019-06-08T06:05:36.935Z,52.28
2019-06-08T06:06:36.965Z,51.78
2019-06-08T06:07:37.021Z,51.88
2019-06-08T06:08:37.626Z,52.06
2019-06-08T06:09:36.894Z,52.46
2019-06-08T06:10:37.173Z,51.78
2019-06-08T06:11:36.879Z,51.57
2019-06-08T06:12:36.865Z,51.68
2019-06-08T06:13:36.918Z,52.08
2019-06-08T06:14:37.040Z,51.17
2019-06-08T06:15:36.843Z,51.37
2019-06-08T06:16:36.827Z,51.28
2019-06-08T06:17:36.814Z,51.57
2019-06-08T06:18:36.796Z,51.57
2019-06-08T06:19:36.824Z,51.37
2019-06-08T06:20:36.789Z,51.68
2019-06-08T06:21:36.766Z,51.57
2019-06-08T06:22:37.154Z,51.17
2019-06-08T06:23:36.744Z,51.17
2019-06-08T06:24:36.736Z,51.37
2019-06-08T06:25:36.765Z,51.17
2019-06-08T06:26:36.724Z,51.88
2019-06-08T06:27:36.715Z,51.48
2019-06-08T06:28:36.705Z,51.28
2019-06-08T06:29:36.683Z,51.78
2019-06-08T06:30:36.683Z,51.60
2019-06-08T06:31:37.267Z,52.21
2019-06-08T06:32:36.655Z,51.88
2019-06-08T06:33:36.645Z,51.78
2019-06-08T06:34:36.914Z,51.28
2019-06-08T06:35:36.631Z,51.48
2019-06-08T06:36:36.627Z,51.37
2019-06-08T06:37:36.634Z,51.37
2019-06-08T06:38:36.597Z,51.78
2019-06-08T06:39:36.574Z,51.81
2019-06-08T06:40:36.571Z,51.60
2019-06-08T06:41:36.557Z,51.37
2019-06-08T06:42:36.553Z,51.28
2019-06-08T06:43:36.573Z,51.68
2019-06-08T06:44:36.600Z,51.28
2019-06-08T06:45:36.526Z,51.37
2019-06-08T06:46:36.506Z,51.78
2019-06-08T06:47:36.507Z,51.37
2019-06-08T06:48:36.483Z,51.68
2019-06-08T06:49:36.517Z,51.98
2019-06-08T06:50:36.462Z,51.98
2019-06-08T06:51:36.454Z,51.88
2019-06-08T06:52:36.799Z,51.68
2019-06-08T06:53:36.434Z,51.28
2019-06-08T06:54:36.421Z,51.17
2019-06-08T06:55:36.463Z,51.48
2019-06-08T06:56:36.403Z,51.55
2019-06-08T06:57:36.906Z,51.65
2019-06-08T06:58:36.376Z,51.65
2019-06-08T06:59:36.371Z,51.53
2019-06-08T07:00:36.355Z,51.32
2019-06-08T07:01:36.496Z,51.55
2019-06-08T07:02:36.785Z,51.86
2019-06-08T07:03:36.459Z,51.83
2019-06-08T07:04:36.514Z,52.34
2019-06-08T07:05:36.792Z,52.26
2019-06-08T07:06:36.527Z,52.76
2019-06-08T07:07:36.783Z,52.26
2019-06-08T07:08:36.283Z,52.26
2019-06-08T07:09:36.272Z,52.46
2019-06-08T07:10:36.267Z,51.98
2019-06-08T07:11:36.243Z,51.98
2019-06-08T07:12:36.650Z,51.78
2019-06-08T07:13:36.352Z,52.08
2019-06-08T07:14:36.213Z,52.08
2019-06-08T07:15:41.459Z,52.26
2019-06-08T07:16:37.182Z,52.26
2019-06-08T07:17:36.174Z,51.45
2019-06-08T07:18:36.200Z,50.37
2019-06-08T07:19:37.833Z,50.29
2019-06-08T07:20:36.200Z,49.17
2019-06-08T07:21:41.640Z,49.07
2019-06-08T07:22:38.074Z,48.95
2019-06-08T07:23:36.113Z,48.74
2019-06-08T07:24:36.122Z,48.52
2019-06-08T07:25:36.161Z,48.42
2019-06-08T07:26:36.092Z,48.42
2019-06-08T07:27:36.073Z,48.62
2019-06-08T07:28:36.074Z,48.70
2019-06-08T07:29:36.081Z,48.60
2019-06-08T07:30:36.145Z,49.01
2019-06-08T07:31:36.075Z,48.50
2019-06-08T07:32:36.035Z,48.60
2019-06-08T07:33:36.753Z,48.58
2019-06-08T07:34:36.013Z,48.58
2019-06-08T07:35:36.003Z,48.47
2019-06-08T07:36:36.011Z,48.17
2019-06-08T07:37:36.509Z,48.58
2019-06-08T07:38:35.952Z,48.27
2019-06-08T07:39:35.951Z,47.97
2019-06-08T07:40:35.953Z,48.47
2019-06-08T07:41:35.962Z,47.56
2019-06-08T07:42:35.968Z,48.58
2019-06-08T07:43:36.765Z,48.27
2019-06-08T07:44:35.963Z,48.27
2019-06-08T07:45:35.892Z,47.67
2019-06-08T07:46:35.872Z,47.47
2019-06-08T07:47:35.882Z,47.47
2019-06-08T07:48:35.854Z,47.77
2019-06-08T07:49:36.297Z,47.77
2019-06-08T07:50:35.834Z,47.77
2019-06-08T07:51:35.823Z,47.24
2019-06-08T07:52:35.860Z,47.04
2019-06-08T07:53:35.913Z,47.04
2019-06-08T07:54:35.782Z,47.06
2019-06-08T07:55:35.882Z,47.26
2019-06-08T07:56:35.782Z,47.34
2019-06-08T07:57:35.901Z,47.74
2019-06-08T07:58:39.524Z,47.24
2019-06-08T07:59:35.839Z,47.34
2019-06-08T08:00:35.762Z,47.04
2019-06-08T08:01:36.749Z,47.19
2019-06-08T08:02:35.722Z,47.32
2019-06-08T08:03:35.712Z,47.30
2019-06-08T08:04:35.683Z,47.19
2019-06-08T08:05:37.572Z,47.82
2019-06-08T08:06:35.734Z,48.22
2019-06-08T08:07:35.712Z,47.62
2019-06-08T08:08:36.128Z,46.92
2019-06-08T08:09:35.643Z,47.12
2019-06-08T08:10:35.648Z,47.62
2019-06-08T08:11:35.612Z,46.92
2019-06-08T08:12:35.655Z,46.73
2019-06-08T08:13:35.817Z,46.94
2019-06-08T08:14:35.603Z,47.16
2019-06-08T08:15:36.299Z,47.04
2019-06-08T08:16:35.565Z,46.64
2019-06-08T08:17:35.572Z,46.73
2019-06-08T08:18:35.600Z,46.84
2019-06-08T08:19:35.743Z,46.81
2019-06-08T08:20:35.534Z,47.24
2019-06-08T08:21:37.981Z,47.95
2019-06-08T08:22:38.010Z,47.64
2019-06-08T08:23:35.516Z,48.27
2019-06-08T08:24:35.502Z,47.77
2019-06-08T08:25:37.898Z,48.47
2019-06-08T08:26:35.451Z,48.68
2019-06-08T08:27:37.547Z,48.78
2019-06-08T08:28:37.530Z,48.88
2019-06-08T08:29:38.279Z,49.28
2019-06-08T08:30:37.865Z,48.98
2019-06-08T08:31:37.425Z,48.68
2019-06-08T08:32:37.994Z,48.88
2019-06-08T08:33:37.866Z,48.98
2019-06-08T08:34:38.163Z,49.10
2019-06-08T08:35:37.965Z,48.88
2019-06-08T08:36:38.178Z,48.78
2019-06-08T08:37:38.090Z,49.08
2019-06-08T08:38:35.371Z,49.28
2019-06-08T08:39:37.618Z,49.51
2019-06-08T08:40:38.589Z,50.42
2019-06-08T08:41:35.988Z,50.12
2019-06-08T08:42:38.590Z,50.19
2019-06-08T08:43:37.715Z,49.79
2019-06-08T08:44:37.794Z,49.66
2019-06-08T08:45:37.301Z,49.66
2019-06-08T08:46:35.281Z,49.56
2019-06-08T08:47:38.669Z,49.28
2019-06-08T08:48:37.591Z,49.79
2019-06-08T08:49:37.965Z,49.56
2019-06-08T08:50:38.822Z,49.26
2019-06-08T08:51:37.670Z,49.56
2019-06-08T08:52:40.858Z,49.56
2019-06-08T08:53:37.377Z,49.66
2019-06-08T08:54:37.554Z,49.46
2019-06-08T08:55:37.814Z,50.07
2019-06-08T08:56:38.145Z,49.87
2019-06-08T08:57:38.541Z,50.27
2019-06-08T08:58:38.074Z,50.37
2019-06-08T08:59:35.303Z,50.57
2019-06-08T09:00:38.272Z,50.67
2019-06-08T09:01:38.211Z,50.57
2019-06-08T09:02:37.304Z,50.55
2019-06-08T09:03:35.071Z,50.02
2019-06-08T09:04:38.044Z,49.41
2019-06-08T09:05:38.191Z,48.99
2019-06-08T09:06:37.947Z,48.49
2019-06-08T09:07:38.245Z,48.24
2019-06-08T09:08:37.570Z,47.53
2019-06-08T09:09:38.667Z,47.03
2019-06-08T09:10:38.110Z,46.91
2019-06-08T09:11:38.376Z,46.40
2019-06-08T09:12:37.643Z,46.18
2019-06-08T09:13:37.715Z,46.60
2019-06-08T09:14:35.502Z,46.80
2019-06-08T09:15:37.895Z,46.91
2019-06-08T09:16:38.366Z,47.11
2019-06-08T09:17:35.292Z,47.13
2019-06-08T09:18:37.494Z,47.13
2019-06-08T09:19:38.391Z,47.33
2019-06-08T09:20:38.122Z,47.11
2019-06-08T09:21:38.211Z,47.00
2019-06-08T09:22:50.214Z,47.86
2019-06-08T09:23:37.790Z,48.28
2019-06-08T09:24:35.153Z,48.79
2019-06-08T09:25:37.381Z,48.79
2019-06-08T09:26:38.060Z,48.99
2019-06-08T09:27:35.291Z,49.09
2019-06-08T09:28:38.673Z,49.09
2019-06-08T09:29:38.569Z,48.69
2019-06-08T09:30:35.296Z,48.69
2019-06-08T09:31:39.037Z,48.36
2019-06-08T09:32:38.029Z,47.96
2019-06-08T09:33:35.626Z,48.14
2019-06-08T09:34:35.303Z,47.63
2019-06-08T09:35:37.739Z,47.33
2019-06-08T09:36:37.578Z,47.83
2019-06-08T09:37:40.293Z,47.63
2019-06-08T09:38:35.219Z,47.08
2019-06-08T09:39:38.339Z,45.91
2019-06-08T09:40:38.385Z,45.01
2019-06-08T09:41:37.909Z,44.99
2019-06-08T09:42:34.691Z,44.46
2019-06-08T09:43:34.665Z,44.93
2019-06-08T09:44:37.681Z,46.08
2019-06-08T09:45:38.120Z,46.58
2019-06-08T09:46:38.367Z,46.60
2019-06-08T09:47:38.091Z,47.33
2019-06-08T09:48:38.181Z,47.03
2019-06-08T09:49:37.515Z,47.13
2019-06-08T09:50:38.741Z,46.95
2019-06-08T09:51:37.757Z,46.93
2019-06-08T09:52:40.695Z,46.70
2019-06-08T09:53:41.472Z,45.87
2019-06-08T09:54:38.434Z,46.08
2019-06-08T09:55:38.216Z,45.67
2019-06-08T09:56:37.810Z,46.50
2019-06-08T09:57:38.322Z,46.20
2019-06-08T09:58:34.515Z,46.50
2019-06-08T09:59:35.059Z,46.20
2019-06-08T10:00:37.904Z,46.40
2019-06-08T10:01:35.354Z,46.91
2019-06-08T10:02:35.222Z,46.58
2019-06-08T10:03:38.951Z,46.38
2019-06-08T10:04:38.535Z,46.60
2019-06-08T10:05:38.858Z,47.00
2019-06-08T10:06:37.773Z,46.70
2019-06-08T10:07:38.541Z,46.91
2019-06-08T10:08:38.562Z,46.50
2019-06-08T10:09:37.990Z,46.10
2019-06-08T10:10:35.272Z,46.50
2019-06-08T10:11:37.847Z,46.10
2019-06-08T10:12:38.231Z,46.08
2019-06-08T10:13:35.396Z,45.33
2019-06-08T10:14:38.037Z,44.60
2019-06-08T10:15:34.693Z,45.13
2019-06-08T10:16:38.203Z,44.93
2019-06-08T10:17:37.779Z,44.85
2019-06-08T10:18:38.485Z,45.25
2019-06-08T10:19:35.462Z,45.15
2019-06-08T10:20:38.341Z,45.15
2019-06-08T10:21:42.753Z,45.25
2019-06-08T10:22:37.473Z,45.15
2019-06-08T10:23:38.690Z,44.67
2019-06-08T10:24:38.733Z,45.62
2019-06-08T10:25:42.602Z,46.02
2019-06-08T10:26:37.651Z,46.02
2019-06-08T10:27:34.247Z,45.82
2019-06-08T10:28:34.435Z,46.22
2019-06-08T10:29:38.178Z,46.12
2019-06-08T10:30:38.282Z,46.53
2019-06-08T10:31:39.906Z,46.42
2019-06-08T10:32:38.163Z,45.92
2019-06-08T10:33:40.524Z,46.34
2019-06-08T10:34:38.792Z,46.33
2019-06-08T10:35:38.238Z,45.82
2019-06-08T10:36:40.571Z,46.00
2019-06-08T10:37:38.415Z,45.87
2019-06-08T10:38:40.915Z,45.75
2019-06-08T10:39:37.937Z,45.65
2019-06-08T10:40:38.331Z,45.35
2019-06-08T10:41:35.689Z,44.73
2019-06-08T10:42:39.857Z,44.53
2019-06-08T10:43:38.308Z,44.63
2019-06-08T10:44:38.238Z,44.55
2019-06-08T10:45:36.222Z,44.97
2019-06-08T10:46:40.359Z,45.15
2019-06-08T10:47:37.727Z,45.57
2019-06-08T10:48:37.491Z,45.47
2019-06-08T10:49:34.819Z,45.78
2019-06-08T10:50:35.942Z,46.20
2019-06-08T10:51:34.727Z,46.80
2019-06-08T10:52:38.980Z,46.80
2019-06-08T10:53:46.566Z,47.11
2019-06-08T10:54:37.831Z,46.28
2019-06-08T10:55:34.060Z,45.33
2019-06-08T10:56:38.396Z,45.23
2019-06-08T10:57:37.409Z,45.95
2019-06-08T10:58:34.393Z,45.95
2019-06-08T10:59:36.661Z,46.46
2019-06-08T11:00:38.696Z,46.06
2019-06-08T11:01:35.126Z,46.26
2019-06-08T11:02:34.207Z,46.08
2019-06-08T11:03:38.838Z,46.00
2019-06-08T11:04:38.634Z,46.40
2019-06-08T11:05:34.298Z,46.53
2019-06-08T11:06:34.294Z,46.93
2019-06-08T11:07:38.056Z,46.80
2019-06-08T11:08:38.856Z,46.60
2019-06-08T11:09:38.176Z,46.50
2019-06-08T11:10:38.263Z,46.78
2019-06-08T11:11:34.528Z,47.08
2019-06-08T11:12:34.694Z,46.76
2019-06-08T11:13:34.512Z,45.61
2019-06-08T11:14:34.103Z,43.84
2019-06-08T11:15:33.775Z,44.24
2019-06-08T11:16:34.359Z,42.55
2019-06-08T11:17:33.811Z,41.55
2019-06-08T11:18:33.839Z,41.25
2019-06-08T11:19:34.613Z,42.10
2019-06-08T11:20:34.249Z,41.55
2019-06-08T11:21:33.799Z,43.14
2019-06-08T11:22:33.622Z,43.86
2019-06-08T11:23:34.524Z,42.97
2019-06-08T11:24:34.614Z,43.20
2019-06-08T11:25:33.583Z,44.02
2019-06-08T11:26:34.318Z,44.63
2019-06-08T11:27:33.614Z,45.25
2019-06-08T11:28:33.630Z,45.03
2019-06-08T11:29:34.030Z,45.33
2019-06-08T11:30:33.570Z,44.43
2019-06-08T11:31:33.527Z,44.53
2019-06-08T11:32:33.794Z,44.73
2019-06-08T11:33:38.958Z,45.05
2019-06-08T11:34:37.705Z,44.75
2019-06-08T11:35:34.004Z,44.45
2019-06-08T11:36:34.521Z,44.97
2019-06-08T11:37:33.968Z,44.97
2019-06-08T11:38:34.574Z,44.57
2019-06-08T11:39:33.873Z,44.55
2019-06-08T11:40:33.792Z,44.55
2019-06-08T11:41:33.455Z,44.55
2019-06-08T11:42:33.419Z,45.15
2019-06-08T11:43:34.374Z,45.15
2019-06-08T11:44:33.585Z,44.85
2019-06-08T11:45:33.819Z,44.85
2019-06-08T11:46:34.601Z,45.25
2019-06-08T11:47:34.400Z,45.03
2019-06-08T11:48:33.641Z,44.85
2019-06-08T11:49:33.434Z,43.87
2019-06-08T11:50:33.553Z,44.95
2019-06-08T11:51:33.390Z,45.17
2019-06-08T11:52:33.331Z,44.97
2019-06-08T11:53:33.291Z,44.77
2019-06-08T11:54:37.475Z,44.67
2019-06-08T11:55:34.271Z,44.37
2019-06-08T11:56:33.892Z,44.95
2019-06-08T11:57:34.489Z,44.55
2019-06-08T11:58:33.309Z,44.75
2019-06-08T11:59:34.000Z,44.43
2019-06-08T12:00:33.215Z,44.53
2019-06-08T12:01:33.669Z,44.43
2019-06-08T12:02:33.958Z,44.02
2019-06-08T12:03:33.225Z,43.40
2019-06-08T12:04:48.450Z,43.70
2019-06-08T12:05:33.875Z,43.30
2019-06-08T12:06:33.170Z,43.60
2019-06-08T12:07:33.505Z,43.72
2019-06-08T12:08:33.240Z,44.12
2019-06-08T12:09:33.783Z,43.90
2019-06-08T12:10:33.125Z,43.22
2019-06-08T12:11:33.114Z,43.52
2019-06-08T12:12:33.754Z,43.30
2019-06-08T12:13:33.084Z,43.70
2019-06-08T12:14:33.731Z,43.30
2019-06-08T12:15:34.024Z,43.52
2019-06-08T12:16:33.138Z,44.04
2019-06-08T12:17:33.764Z,44.04
2019-06-08T12:18:33.039Z,43.74
2019-06-08T12:19:33.573Z,44.04
2019-06-08T12:20:33.094Z,44.45
2019-06-08T12:21:33.975Z,44.63
2019-06-08T12:22:33.725Z,44.31
2019-06-08T12:23:33.593Z,43.98
2019-06-08T12:24:42.186Z,44.00
2019-06-08T12:25:37.669Z,43.58
2019-06-08T12:26:34.036Z,43.88
2019-06-08T12:27:36.615Z,43.92
2019-06-08T12:28:34.622Z,43.80
2019-06-08T12:29:33.702Z,43.60
2019-06-08T12:30:33.985Z,42.97
2019-06-08T12:31:32.896Z,42.78
2019-06-08T12:32:32.924Z,42.76
2019-06-08T12:33:33.514Z,42.66
2019-06-08T12:34:32.871Z,42.66
2019-06-08T12:35:32.854Z,41.49
2019-06-08T12:36:32.895Z,41.51
2019-06-08T12:37:32.945Z,41.71
2019-06-08T12:38:34.659Z,42.24
2019-06-08T12:39:33.184Z,42.94
2019-06-08T12:40:37.889Z,42.13
2019-06-08T12:41:34.549Z,41.45
2019-06-08T12:42:33.419Z,42.55
2019-06-08T12:43:33.724Z,42.68
2019-06-08T12:44:32.754Z,43.20
2019-06-08T12:45:32.885Z,43.90
2019-06-08T12:46:33.706Z,44.10
2019-06-08T12:47:32.716Z,44.23
2019-06-08T12:48:32.814Z,44.53
2019-06-08T12:49:32.825Z,44.83
2019-06-08T12:50:33.034Z,44.53
2019-06-08T12:51:32.935Z,44.63
2019-06-08T12:52:32.863Z,44.75
2019-06-08T12:53:32.744Z,44.85